Time;durP1;ratioP1;P1;durP2;ratioP2;P2;SDS_P1;SDS_P2;PMS_P1;PMS_P2;Temp;Humidity;BMP_temperature;BMP_pressure;BME280_temperature;BME280_humidity;BME280_pressure;Samples;Min_cycle;Max_cycle;Signal;HPM_P1;HPM_P2
2024/02/05 08:04:15;;;;;;;1.80;1.40;;;9.90;99.90;;;;;;4945872;23;20512;-58
2024/02/05 08:06:41;;;;;;;3.47;1.63;;;9.90;99.90;;;;;;4936007;29;20913;-58
2024/02/05 08:09:07;;;;;;;1.63;1.53;;;9.90;99.90;;;;;;4936450;29;20684;-57
2024/02/05 08:11:32;;;;;;;2.90;2.03;;;9.80;99.90;;;;;;4936885;29;20180;-63
2024/02/05 08:13:58;;;;;;;2.40;2.03;;;9.80;99.90;;;;;;4935742;29;20211;-65
2024/02/05 08:16:23;;;;;;;3.23;1.70;;;9.80;99.90;;;;;;4936833;29;20189;-60
2024/02/05 08:18:50;;;;;;;3.80;2.37;;;9.80;99.90;;;;;;4937414;29;20576;-57
2024/02/05 08:21:15;;;;;;;7.80;2.37;;;9.80;99.90;;;;;;4936965;29;20282;-63
2024/02/05 08:23:42;;;;;;;4.10;1.73;;;9.80;99.90;;;;;;4936750;29;20537;-60
2024/02/05 08:26:08;;;;;;;2.03;1.83;;;9.80;99.90;;;;;;4936130;29;20183;-60
2024/02/05 08:28:34;;;;;;;5.17;2.20;;;9.80;99.90;;;;;;4936748;29;20461;-59
2024/02/05 08:31:00;;;;;;;2.50;2.20;;;9.80;99.90;;;;;;4935073;29;20467;-61
2024/02/05 08:33:25;;;;;;;7.03;2.20;;;9.80;99.90;;;;;;4936205;29;20289;-61
2024/02/05 08:35:51;;;;;;;4.00;2.50;;;9.80;99.90;;;;;;4936240;29;20186;-59
2024/02/05 08:38:17;;;;;;;2.50;1.80;;;9.80;99.90;;;;;;4936284;29;20207;-61
2024/02/05 08:40:45;;;;;;;3.87;2.17;;;9.80;99.90;;;;;;4936420;29;20454;-62
2024/02/05 08:43:10;;;;;;;4.83;2.20;;;9.80;99.90;;;;;;4935906;29;20199;-60
2024/02/05 08:45:36;;;;;;;3.27;2.57;;;9.80;99.90;;;;;;4936049;29;20466;-60
2024/02/05 08:48:02;;;;;;;3.57;2.30;;;9.90;99.90;;;;;;4936233;29;20755;-59
2024/02/05 08:50:33;;;;;;;4.60;3.10;;;9.90;99.90;;;;;;4936265;29;20526;-60
2024/02/05 08:53:00;;;;;;;2.50;2.30;;;9.90;99.90;;;;;;4936084;29;20810;-60
2024/02/05 08:55:26;;;;;;;2.37;2.17;;;9.90;99.90;;;;;;4936524;29;20425;-60
2024/02/05 08:57:51;;;;;;;7.20;2.23;;;9.80;99.90;;;;;;4936193;29;20431;-60
2024/02/05 09:00:19;;;;;;;6.60;2.90;;;9.80;99.90;;;;;;4936263;29;20198;-60
2024/02/05 09:02:50;;;;;;;3.00;2.43;;;9.80;99.90;;;;;;4935814;29;20450;-60
2024/02/05 09:05:16;;;;;;;7.87;3.47;;;9.80;99.90;;;;;;4935543;29;20602;-61
2024/02/05 09:07:41;;;;;;;4.87;2.90;;;9.80;99.90;;;;;;4936090;29;20430;-59
2024/02/05 09:10:07;;;;;;;5.47;3.13;;;9.90;99.90;;;;;;4935884;29;20415;-60
2024/02/05 09:12:33;;;;;;;6.00;2.97;;;9.90;99.90;;;;;;4935748;29;20225;-60
2024/02/05 09:15:00;;;;;;;7.70;3.30;;;9.90;99.90;;;;;;4936109;29;20430;-60
2024/02/05 09:17:25;;;;;;;11.40;4.03;;;9.90;99.90;;;;;;4936216;29;20424;-60
2024/02/05 09:19:51;;;;;;;10.03;3.97;;;9.90;99.90;;;;;;4936127;29;20419;-61
2024/02/05 09:22:17;;;;;;;6.43;3.60;;;9.80;99.90;;;;;;4935510;29;20278;-60
2024/02/05 09:24:43;;;;;;;10.70;4.47;;;9.90;99.90;;;;;;4935766;29;20772;-62
2024/02/05 09:27:08;;;;;;;9.90;3.97;;;9.90;99.90;;;;;;4935427;29;20207;-60
2024/02/05 09:29:34;;;;;;;7.90;3.53;;;9.80;99.90;;;;;;4935812;29;20421;-60
2024/02/05 09:31:59;;;;;;;7.37;3.60;;;9.80;99.90;;;;;;4935572;29;20503;-61
2024/02/05 09:34:25;;;;;;;5.37;3.73;;;9.70;99.90;;;;;;4935428;29;20186;-61
2024/02/05 09:36:51;;;;;;;5.73;2.80;;;9.70;99.90;;;;;;4935664;29;20213;-61
2024/02/05 09:39:17;;;;;;;13.50;4.30;;;9.60;99.90;;;;;;4935643;29;20977;-61
2024/02/05 09:41:44;;;;;;;9.57;3.87;;;9.60;99.90;;;;;;4934994;29;20668;-61
2024/02/05 09:44:11;;;;;;;7.50;3.93;;;9.60;99.90;;;;;;4935228;29;20911;-61
2024/02/05 09:46:38;;;;;;;8.23;4.33;;;9.60;99.90;;;;;;4935274;29;20523;-61
2024/02/05 09:49:04;;;;;;;10.83;5.10;;;9.60;99.90;;;;;;4935222;29;20411;-60
2024/02/05 09:51:33;;;;;;;5.73;4.30;;;9.60;99.90;;;;;;4935142;29;20799;-61
2024/02/05 09:54:00;;;;;;;12.40;4.67;;;9.60;99.90;;;;;;4934985;29;20442;-60
2024/02/05 09:56:29;;;;;;;7.23;3.83;;;9.70;99.90;;;;;;4934848;29;20427;-58
2024/02/05 09:58:54;;;;;;;10.20;4.67;;;9.60;99.90;;;;;;4935522;29;20426;-59
2024/02/05 10:01:20;;;;;;;5.70;4.20;;;9.60;99.90;;;;;;4935026;29;20427;-60
2024/02/05 10:03:47;;;;;;;8.37;3.80;;;9.60;99.90;;;;;;4938434;29;20211;-61
2024/02/05 10:06:17;;;;;;;6.47;3.90;;;9.60;99.90;;;;;;4936956;29;20437;-57
2024/02/05 10:08:45;;;;;;;7.33;3.20;;;9.60;99.90;;;;;;4937175;29;20432;-60
2024/02/05 10:11:13;;;;;;;13.40;4.60;;;9.60;99.90;;;;;;4934335;29;21013;-60
2024/02/05 10:13:39;;;;;;;7.20;3.40;;;9.60;99.90;;;;;;4936945;29;20445;-60
2024/02/05 10:16:05;;;;;;;12.67;5.33;;;9.60;99.90;;;;;;4939370;29;20415;-60
2024/02/05 10:18:31;;;;;;;10.27;4.70;;;9.60;99.90;;;;;;4941390;29;20549;-60
2024/02/05 10:20:59;;;;;;;5.63;3.90;;;9.60;99.90;;;;;;4938572;29;20183;-61
2024/02/05 10:23:25;;;;;;;6.20;3.60;;;9.60;99.90;;;;;;4941262;28;20461;-60
2024/02/05 10:25:51;;;;;;;10.70;3.90;;;9.60;99.90;;;;;;4934507;29;20415;-60
2024/02/05 10:28:20;;;;;;;8.30;3.50;;;9.60;99.90;;;;;;4939765;29;20226;-59
2024/02/05 10:30:45;;;;;;;10.07;5.33;;;9.60;99.90;;;;;;4934357;29;20511;-60
2024/02/05 10:33:11;;;;;;;6.23;4.57;;;9.70;99.90;;;;;;4930759;29;20803;-59
2024/02/05 10:35:39;;;;;;;5.13;4.20;;;9.70;99.90;;;;;;4928798;29;20650;-59
2024/02/05 10:38:11;;;;;;;7.43;3.90;;;9.70;99.90;;;;;;4933835;29;20270;-57
2024/02/05 10:40:38;;;;;;;8.70;3.50;;;9.70;99.90;;;;;;4933390;29;20437;-58
2024/02/05 10:43:04;;;;;;;6.37;3.23;;;9.70;99.90;;;;;;4933969;29;20501;-60
2024/02/05 10:45:39;;;;;;;8.87;3.17;;;9.70;99.90;;;;;;4942206;29;20836;-60
2024/02/05 10:48:06;;;;;;;6.03;3.43;;;9.80;99.90;;;;;;4937697;29;20425;-60
2024/02/05 10:50:31;;;;;;;4.70;2.60;;;9.80;99.90;;;;;;4933802;29;20433;-59
2024/02/05 10:52:58;;;;;;;8.70;3.60;;;9.80;99.90;;;;;;4935124;29;20950;-59
2024/02/05 10:55:24;;;;;;;13.80;3.10;;;9.80;99.90;;;;;;4937536;29;20344;-60
2024/02/05 10:57:56;;;;;;;10.63;4.13;;;9.80;99.90;;;;;;4934137;29;20427;-60
2024/02/05 11:00:23;;;;;;;4.60;3.40;;;9.80;99.90;;;;;;4933798;29;20431;-60
2024/02/05 11:03:04;;;;;;;7.10;4.30;;;9.80;99.90;;;;;;4933467;29;20446;-60
2024/02/05 11:05:32;;;;;;;7.57;4.27;;;9.70;99.90;;;;;;4935786;29;20466;-60
2024/02/05 11:08:07;;;;;;;5.80;3.20;;;9.70;99.90;;;;;;4939271;29;20484;-60
2024/02/05 11:10:40;;;;;;;9.97;4.60;;;9.70;99.90;;;;;;4927752;29;20450;-59
2024/02/05 11:13:08;;;;;;;5.50;3.10;;;9.70;99.90;;;;;;4937869;29;20962;-59
2024/02/05 11:15:37;;;;;;;10.83;3.53;;;9.70;99.90;;;;;;4926376;29;20435;-59
2024/02/05 11:18:11;;;;;;;6.30;3.87;;;9.60;99.90;;;;;;4939451;29;20496;-59
2024/02/05 11:20:38;;;;;;;7.40;3.77;;;9.70;99.90;;;;;;4933376;29;20429;-60
2024/02/05 11:23:05;;;;;;;15.63;4.67;;;9.70;99.90;;;;;;4936599;29;20528;-59
2024/02/05 11:25:31;;;;;;;17.97;5.67;;;9.70;99.90;;;;;;4939931;29;20541;-59
2024/02/05 11:27:57;;;;;;;6.20;3.77;;;9.70;99.90;;;;;;4934092;29;20446;-60
2024/02/05 11:30:22;;;;;;;8.00;4.47;;;9.70;99.90;;;;;;4942608;29;20425;-60
2024/02/05 11:32:48;;;;;;;9.70;5.53;;;9.60;99.90;;;;;;4937081;29;20199;-60
2024/02/05 11:35:14;;;;;;;8.50;3.80;;;9.60;99.90;;;;;;4939335;29;20602;-64
2024/02/05 11:37:43;;;;;;;8.13;4.77;;;9.60;99.90;;;;;;4937822;29;20728;-66
2024/02/05 11:40:22;;;;;;;12.57;4.30;;;9.60;99.90;;;;;;4937951;29;20453;-63
2024/02/05 11:43:02;;;;;;;9.63;4.47;;;9.70;99.90;;;;;;4937210;29;20465;-61
2024/02/05 11:45:28;;;;;;;9.70;2.80;;;9.70;99.90;;;;;;4937214;29;20488;-60
2024/02/05 11:47:55;;;;;;;5.20;3.40;;;9.80;99.90;;;;;;4937111;29;20434;-60
2024/02/05 11:50:21;;;;;;;11.67;3.63;;;9.80;99.90;;;;;;4936993;29;20733;-60
2024/02/05 11:52:46;;;;;;;9.87;4.47;;;9.80;99.90;;;;;;4937108;29;20522;-60
2024/02/05 11:55:16;;;;;;;11.30;3.53;;;9.70;99.90;;;;;;4936881;29;20222;-60
2024/02/05 11:57:43;;;;;;;11.00;3.60;;;9.70;99.90;;;;;;4932268;29;20207;-60
2024/02/05 12:00:14;;;;;;;7.90;3.67;;;9.70;99.90;;;;;;4936975;29;20493;-59
2024/02/05 12:02:40;;;;;;;9.53;3.70;;;9.70;99.90;;;;;;4936704;29;20791;-60
2024/02/05 12:05:06;;;;;;;7.97;3.57;;;9.70;99.90;;;;;;4936650;29;20469;-60
2024/02/05 12:07:32;;;;;;;9.30;3.63;;;9.60;99.90;;;;;;4936442;29;20455;-60
2024/02/05 12:09:58;;;;;;;9.90;4.30;;;9.60;99.90;;;;;;4936722;29;20442;-60
2024/02/05 12:12:25;;;;;;;6.87;4.00;;;9.60;99.90;;;;;;4939540;29;20475;-60
2024/02/05 12:14:50;;;;;;;12.43;4.83;;;9.60;99.90;;;;;;4942270;29;20179;-60
2024/02/05 12:17:19;;;;;;;10.03;3.37;;;9.60;99.90;;;;;;4938808;29;20912;-60
2024/02/05 12:19:45;;;;;;;7.87;3.70;;;9.60;99.90;;;;;;4945066;29;20260;-59
2024/02/05 12:22:11;;;;;;;5.70;3.90;;;9.60;99.90;;;;;;4941497;29;20423;-58
2024/02/05 12:24:38;;;;;;;6.10;3.87;;;9.60;99.90;;;;;;4942412;29;20873;-60
2024/02/05 12:27:04;;;;;;;11.43;4.23;;;9.50;99.90;;;;;;4941959;29;20419;-60
2024/02/05 12:29:30;;;;;;;9.93;4.00;;;9.40;99.90;;;;;;4940061;29;20461;-60
2024/02/05 12:32:06;;;;;;;6.60;4.13;;;9.40;99.90;;;;;;4941888;29;20455;-60
2024/02/05 12:34:32;;;;;;;9.33;5.03;;;9.30;99.90;;;;;;4938581;29;20246;-60
2024/02/05 12:36:58;;;;;;;5.57;4.20;;;9.30;99.90;;;;;;4946313;29;20435;-59
2024/02/05 12:39:24;;;;;;;7.90;4.00;;;9.40;99.90;;;;;;4939568;29;20274;-59
2024/02/05 12:41:49;;;;;;;8.30;4.13;;;9.50;99.90;;;;;;4943353;29;20193;-60
2024/02/05 12:44:15;;;;;;;12.50;3.90;;;9.50;99.90;;;;;;4939825;28;20210;-60
2024/02/05 12:46:41;;;;;;;6.63;4.10;;;9.50;99.90;;;;;;4941122;29;20175;-60
2024/02/05 12:49:08;;;;;;;9.53;3.37;;;9.60;99.90;;;;;;4940262;29;20431;-61
2024/02/05 12:51:33;;;;;;;14.00;4.30;;;9.60;99.90;;;;;;4938385;29;20249;-60
2024/02/05 12:53:59;;;;;;;7.53;4.07;;;9.70;99.90;;;;;;4946219;28;20441;-60
2024/02/05 12:56:25;;;;;;;8.87;4.63;;;9.70;99.90;;;;;;4939531;29;20731;-60
2024/02/05 12:58:51;;;;;;;8.23;4.77;;;9.70;99.90;;;;;;4940214;29;20181;-60
2024/02/05 13:01:17;;;;;;;10.80;3.43;;;9.70;99.90;;;;;;4933896;29;20208;-60
2024/02/05 13:03:43;;;;;;;13.60;4.23;;;9.70;99.90;;;;;;4935408;29;20490;-61
2024/02/05 13:06:09;;;;;;;8.43;3.77;;;9.80;99.90;;;;;;4935317;29;20203;-60
2024/02/05 13:08:40;;;;;;;11.20;4.07;;;9.70;99.90;;;;;;4935628;29;20471;-61
2024/02/05 13:11:05;;;;;;;18.47;5.87;;;9.80;99.90;;;;;;4935968;29;20193;-61
2024/02/05 13:13:31;;;;;;;13.90;4.20;;;9.80;99.90;;;;;;4942795;29;20450;-60
2024/02/05 13:15:57;;;;;;;10.07;4.13;;;9.80;99.90;;;;;;4935899;29;20190;-61
2024/02/05 13:18:22;;;;;;;14.67;4.13;;;9.80;99.90;;;;;;4932835;29;20277;-60
2024/02/05 13:20:48;;;;;;;8.20;3.50;;;9.80;99.90;;;;;;4928944;29;20187;-59
2024/02/05 13:23:13;;;;;;;12.53;5.60;;;9.80;99.90;;;;;;4935297;29;20291;-59
2024/02/05 13:25:39;;;;;;;17.53;5.03;;;9.80;99.90;;;;;;4935640;29;20300;-60
2024/02/05 13:28:05;;;;;;;10.80;3.93;;;9.80;99.90;;;;;;4935392;29;20733;-60
2024/02/05 13:30:30;;;;;;;11.80;4.63;;;9.80;99.90;;;;;;4935292;29;20191;-60
2024/02/05 13:32:56;;;;;;;15.20;6.33;;;9.90;99.90;;;;;;4934977;29;20213;-60
2024/02/05 13:35:22;;;;;;;14.20;5.00;;;9.90;99.90;;;;;;4934975;29;20202;-60
2024/02/05 13:37:48;;;;;;;21.37;4.70;;;9.90;99.90;;;;;;4935311;29;20192;-60
2024/02/05 13:40:14;;;;;;;8.90;3.93;;;9.90;99.90;;;;;;4935219;29;20423;-59
2024/02/05 13:42:42;;;;;;;8.90;4.10;;;9.90;99.90;;;;;;4935164;29;20700;-60
2024/02/05 13:45:10;;;;;;;11.30;4.27;;;9.90;99.90;;;;;;4934958;29;20265;-60
2024/02/05 13:47:36;;;;;;;8.10;4.60;;;9.90;99.90;;;;;;4934843;29;20430;-60
2024/02/05 13:50:03;;;;;;;9.50;4.17;;;9.90;99.90;;;;;;4935050;29;20426;-60
2024/02/05 13:52:29;;;;;;;14.23;5.43;;;9.90;99.90;;;;;;4933589;29;20202;-60
2024/02/05 13:54:55;;;;;;;8.90;4.80;;;9.90;99.90;;;;;;4935211;29;20522;-60
2024/02/05 13:57:21;;;;;;;11.90;5.20;;;9.90;99.90;;;;;;4934710;29;20901;-60
2024/02/05 13:59:47;;;;;;;13.63;5.20;;;9.90;99.90;;;;;;4934914;29;20522;-60
2024/02/05 14:02:12;;;;;;;16.57;4.70;;;9.90;99.90;;;;;;4934356;29;20182;-60
2024/02/05 14:04:38;;;;;;;14.20;4.30;;;9.90;99.90;;;;;;4934733;29;20215;-59
2024/02/05 14:07:04;;;;;;;8.23;4.50;;;9.90;99.90;;;;;;4934736;29;20494;-60
2024/02/05 14:09:30;;;;;;;9.83;3.93;;;9.90;99.90;;;;;;4934512;29;20187;-60
2024/02/05 14:11:56;;;;;;;11.13;5.00;;;9.90;99.90;;;;;;4938477;29;20469;-60
2024/02/05 14:14:21;;;;;;;10.50;3.90;;;9.90;99.90;;;;;;4941780;29;20455;-59
2024/02/05 14:16:48;;;;;;;13.53;5.27;;;9.90;99.90;;;;;;4937857;29;20207;-61
2024/02/05 14:19:13;;;;;;;14.33;4.93;;;10.00;99.90;;;;;;4934651;29;20201;-60
2024/02/05 14:21:39;;;;;;;14.87;4.43;;;10.00;99.90;;;;;;4936963;29;20514;-59
2024/02/05 14:24:05;;;;;;;14.73;4.77;;;10.00;99.90;;;;;;4939205;29;20234;-56
2024/02/05 14:26:30;;;;;;;10.60;4.30;;;10.00;99.90;;;;;;4990239;23;20234;-61
2024/02/05 14:28:56;;;;;;;14.80;5.10;;;10.00;99.90;;;;;;4933755;29;20877;-62
2024/02/05 14:31:22;;;;;;;7.60;4.10;;;10.00;99.90;;;;;;4933248;29;20265;-64
2024/02/05 14:33:47;;;;;;;6.83;3.60;;;10.00;99.90;;;;;;4933576;29;20190;-64
2024/02/05 14:36:13;;;;;;;9.23;4.17;;;10.00;99.90;;;;;;4933679;29;20253;-64
2024/02/05 14:38:39;;;;;;;11.00;6.23;;;10.00;99.90;;;;;;4933246;29;20202;-64
2024/02/05 14:41:04;;;;;;;14.83;3.57;;;10.00;99.90;;;;;;4933487;29;20179;-63
2024/02/05 14:43:30;;;;;;;10.97;3.33;;;10.00;99.90;;;;;;4931874;29;20183;-64
2024/02/05 14:45:56;;;;;;;10.87;4.13;;;10.00;99.90;;;;;;4934141;29;20219;-63
2024/02/05 14:48:22;;;;;;;13.13;5.37;;;10.10;99.90;;;;;;4934800;29;20481;-63
2024/02/05 14:50:49;;;;;;;21.70;4.80;;;10.00;99.90;;;;;;4934100;29;20455;-63
2024/02/05 14:53:15;;;;;;;8.70;4.77;;;10.10;99.90;;;;;;4933952;29;20430;-65
2024/02/05 14:55:41;;;;;;;13.83;4.90;;;10.10;99.90;;;;;;4933181;29;22704;-65
2024/02/05 14:58:08;;;;;;;7.17;3.90;;;10.10;99.90;;;;;;4933725;29;20183;-63
2024/02/05 15:00:33;;;;;;;14.27;4.20;;;10.10;99.90;;;;;;4933147;29;20195;-64
2024/02/05 15:03:00;;;;;;;12.17;5.93;;;10.00;99.90;;;;;;4933961;29;20498;-62
2024/02/05 15:05:26;;;;;;;14.50;4.50;;;10.00;99.90;;;;;;4941585;29;20202;-64
2024/02/05 15:07:52;;;;;;;17.70;4.80;;;10.00;99.90;;;;;;4937410;29;20537;-64
2024/02/05 15:10:18;;;;;;;11.37;4.63;;;10.00;99.90;;;;;;4937382;29;20449;-63
2024/02/05 15:12:44;;;;;;;14.40;4.20;;;10.00;99.90;;;;;;4937028;29;20180;-64
2024/02/05 15:15:10;;;;;;;10.00;4.17;;;10.00;99.90;;;;;;4937102;29;20497;-63
2024/02/05 15:17:36;;;;;;;9.67;4.70;;;10.00;99.90;;;;;;4937127;29;20183;-64
2024/02/05 15:20:03;;;;;;;6.97;3.87;;;10.00;99.90;;;;;;4936873;29;20213;-64
2024/02/05 15:22:28;;;;;;;19.97;4.60;;;10.00;99.90;;;;;;4936577;29;20469;-63
2024/02/05 15:24:54;;;;;;;10.33;4.93;;;10.00;99.90;;;;;;4932556;29;20493;-65
2024/02/05 15:27:19;;;;;;;8.03;4.00;;;10.00;99.90;;;;;;4937027;29;20194;-63
2024/02/05 15:29:45;;;;;;;8.93;4.40;;;10.00;99.90;;;;;;4936235;29;20186;-64
2024/02/05 15:32:11;;;;;;;6.90;3.90;;;10.00;99.90;;;;;;4927743;29;20686;-64
2024/02/05 15:34:36;;;;;;;10.53;4.67;;;10.00;99.90;;;;;;4936442;29;20194;-64
2024/02/05 15:37:02;;;;;;;11.80;3.80;;;10.00;99.90;;;;;;4936439;29;20195;-63
2024/02/05 15:39:28;;;;;;;12.47;4.33;;;10.00;99.90;;;;;;4936549;29;20187;-64
2024/02/05 15:41:54;;;;;;;13.10;5.00;;;10.00;99.90;;;;;;4936276;29;20933;-64
2024/02/05 15:44:19;;;;;;;15.40;5.30;;;10.00;99.90;;;;;;4936578;29;20250;-64
2024/02/05 15:46:45;;;;;;;11.13;4.27;;;10.00;99.90;;;;;;4936492;29;20199;-64
2024/02/05 15:49:12;;;;;;;14.53;3.80;;;10.00;99.90;;;;;;4937236;29;20270;-64
2024/02/05 15:51:38;;;;;;;6.43;3.60;;;10.00;99.90;;;;;;4936314;29;20422;-63
2024/02/05 15:54:04;;;;;;;17.53;5.90;;;10.10;99.90;;;;;;4936316;29;20426;-63
2024/02/05 15:56:30;;;;;;;17.27;5.17;;;10.10;99.90;;;;;;4936047;29;20545;-66
2024/02/05 15:58:56;;;;;;;8.13;4.50;;;10.10;99.90;;;;;;4936508;29;20278;-63
2024/02/05 16:01:22;;;;;;;6.77;3.70;;;10.00;99.90;;;;;;4936866;29;20191;-62
2024/02/05 16:03:48;;;;;;;10.73;5.80;;;10.00;99.90;;;;;;4935818;29;20433;-63
2024/02/05 16:06:14;;;;;;;7.10;4.57;;;10.00;99.90;;;;;;4941176;29;20208;-63
2024/02/05 16:08:40;;;;;;;15.90;4.40;;;10.00;99.90;;;;;;4935778;29;20505;-63
2024/02/05 16:11:06;;;;;;;7.50;4.27;;;10.00;99.90;;;;;;4936118;29;20183;-63
2024/02/05 16:13:33;;;;;;;15.00;5.03;;;10.00;99.90;;;;;;4935629;29;21326;-62
2024/02/05 16:15:58;;;;;;;8.87;4.90;;;10.00;99.90;;;;;;4934975;29;20211;-61
2024/02/05 16:18:24;;;;;;;13.00;6.43;;;10.00;99.90;;;;;;4936079;29;20431;-63
2024/02/05 16:20:50;;;;;;;16.63;6.40;;;9.90;99.90;;;;;;4935635;29;20187;-62
2024/02/05 16:23:15;;;;;;;10.30;4.90;;;9.90;99.90;;;;;;4936046;29;20187;-63
2024/02/05 16:25:41;;;;;;;10.57;4.70;;;10.00;99.90;;;;;;4935622;29;20218;-62
2024/02/05 16:28:06;;;;;;;11.47;4.93;;;10.00;99.90;;;;;;4936084;29;20528;-62
2024/02/05 16:30:35;;;;;;;17.00;4.60;;;10.00;99.90;;;;;;4935889;29;20190;-63
2024/02/05 16:33:01;;;;;;;9.70;4.33;;;10.00;99.90;;;;;;4935972;29;20335;-64
2024/02/05 16:35:27;;;;;;;9.00;4.77;;;10.00;99.90;;;;;;4936129;29;20486;-63
2024/02/05 16:37:53;;;;;;;11.00;4.90;;;10.00;99.90;;;;;;4928463;29;20443;-62
2024/02/05 16:40:23;;;;;;;15.20;5.30;;;10.00;99.90;;;;;;4935855;29;20422;-63
2024/02/05 16:42:49;;;;;;;13.33;6.20;;;10.00;99.90;;;;;;4935572;29;20182;-63
2024/02/05 16:45:14;;;;;;;12.47;4.30;;;9.90;99.90;;;;;;4935626;29;20465;-63
2024/02/05 16:47:40;;;;;;;9.57;5.00;;;9.90;99.90;;;;;;4935547;29;20234;-64
2024/02/05 16:50:07;;;;;;;13.90;5.93;;;9.90;99.90;;;;;;4935720;29;20559;-64
2024/02/05 16:52:33;;;;;;;18.20;6.63;;;9.90;99.90;;;;;;4935274;29;20175;-65
2024/02/05 16:54:58;;;;;;;23.97;6.67;;;10.00;99.90;;;;;;4935289;29;20449;-63
2024/02/05 16:57:24;;;;;;;14.37;5.07;;;10.00;99.90;;;;;;4935213;29;20238;-63
2024/02/05 16:59:51;;;;;;;13.10;6.43;;;10.00;99.90;;;;;;4935118;29;20184;-63
2024/02/05 17:02:17;;;;;;;12.17;3.90;;;10.10;99.90;;;;;;4935146;29;20190;-63
2024/02/05 17:04:43;;;;;;;7.57;4.07;;;10.10;99.90;;;;;;4934936;29;20961;-64
2024/02/05 17:07:11;;;;;;;18.67;4.67;;;10.10;99.90;;;;;;4940654;29;20195;-63
2024/02/05 17:09:37;;;;;;;11.70;4.73;;;10.10;99.90;;;;;;4934626;29;20953;-64
2024/02/05 17:12:02;;;;;;;6.73;5.17;;;10.20;99.90;;;;;;4934947;29;20431;-63
2024/02/05 17:14:28;;;;;;;15.93;4.63;;;10.20;99.90;;;;;;4934968;29;20605;-63
2024/02/05 17:16:54;;;;;;;11.03;4.70;;;10.20;99.90;;;;;;4934585;29;20486;-63
2024/02/05 17:19:20;;;;;;;16.40;6.47;;;10.20;99.90;;;;;;4934942;29;20571;-64
2024/02/05 17:21:47;;;;;;;13.03;6.33;;;10.20;99.90;;;;;;4934762;29;20193;-63
2024/02/05 17:24:14;;;;;;;14.37;5.20;;;10.20;99.90;;;;;;4940345;29;20489;-64
2024/02/05 17:26:40;;;;;;;12.03;4.33;;;10.20;99.90;;;;;;4934354;29;20868;-63
2024/02/05 17:29:06;;;;;;;15.27;5.30;;;10.30;99.90;;;;;;4934894;29;20482;-63
2024/02/05 17:31:31;;;;;;;7.00;3.80;;;10.30;99.90;;;;;;4934829;29;20209;-63
2024/02/05 17:33:57;;;;;;;12.00;4.57;;;10.30;99.90;;;;;;4934811;29;20645;-63
2024/02/05 17:36:23;;;;;;;25.73;7.90;;;10.30;99.90;;;;;;4934768;29;20613;-64
2024/02/05 17:38:48;;;;;;;10.87;4.73;;;10.30;99.90;;;;;;4934396;29;20650;-63
2024/02/05 17:41:14;;;;;;;14.93;5.23;;;10.30;99.90;;;;;;4934737;29;20245;-64
2024/02/05 17:43:40;;;;;;;10.07;5.93;;;10.30;99.90;;;;;;4933937;29;20187;-64
2024/02/05 17:46:06;;;;;;;13.93;6.10;;;10.30;99.90;;;;;;4934579;29;20207;-63
2024/02/05 17:48:35;;;;;;;8.63;4.60;;;10.30;99.90;;;;;;4942186;29;20802;-64
2024/02/05 17:51:01;;;;;;;17.03;6.47;;;10.30;99.90;;;;;;4927112;29;20904;-63
2024/02/05 17:53:26;;;;;;;11.73;5.17;;;10.30;99.90;;;;;;4934372;29;20419;-62
2024/02/05 17:55:52;;;;;;;9.90;4.90;;;10.20;99.90;;;;;;4933793;29;20450;-62
2024/02/05 17:58:21;;;;;;;13.80;5.37;;;10.20;99.90;;;;;;4934188;29;20237;-63
2024/02/05 18:00:48;;;;;;;14.00;6.23;;;10.20;99.90;;;;;;4934012;29;20652;-67
2024/02/05 18:03:14;;;;;;;9.87;4.60;;;10.20;99.90;;;;;;4934054;29;20435;-63
2024/02/05 18:05:40;;;;;;;16.97;4.97;;;10.20;99.90;;;;;;4939575;29;20469;-63
2024/02/05 18:08:07;;;;;;;10.80;6.30;;;10.20;99.90;;;;;;4934156;29;20431;-62
2024/02/05 18:10:33;;;;;;;16.60;5.30;;;10.20;99.90;;;;;;4934289;29;20203;-64
2024/02/05 18:13:00;;;;;;;10.37;4.90;;;10.20;99.90;;;;;;4933619;29;20945;-64
2024/02/05 18:15:28;;;;;;;10.80;5.80;;;10.10;99.90;;;;;;4934128;29;20238;-64
2024/02/05 18:17:54;;;;;;;11.20;5.50;;;10.20;99.90;;;;;;4933781;29;20443;-64
2024/02/05 18:20:20;;;;;;;18.43;7.87;;;10.20;99.90;;;;;;4933919;29;20841;-64
2024/02/05 18:22:45;;;;;;;10.37;5.73;;;10.10;99.90;;;;;;4933476;29;20273;-62
2024/02/05 18:25:11;;;;;;;20.20;6.13;;;10.10;99.90;;;;;;4933644;29;20876;-62
2024/02/05 18:27:37;;;;;;;8.13;5.00;;;10.10;99.90;;;;;;4933494;29;20270;-64
2024/02/05 18:30:03;;;;;;;14.63;6.30;;;10.10;99.90;;;;;;4926655;29;20254;-64
2024/02/05 18:32:28;;;;;;;16.73;6.13;;;10.10;99.90;;;;;;4931043;29;20194;-63
2024/02/05 18:34:54;;;;;;;14.77;6.57;;;10.10;99.90;;;;;;4932500;29;20421;-64
2024/02/05 18:37:21;;;;;;;12.97;5.40;;;10.10;99.90;;;;;;4933574;29;20174;-63
2024/02/05 18:39:46;;;;;;;8.03;5.23;;;10.20;99.90;;;;;;4933837;29;20192;-63
2024/02/05 18:42:13;;;;;;;15.40;6.80;;;10.10;99.90;;;;;;4933913;29;20517;-64
2024/02/05 18:44:39;;;;;;;15.20;5.07;;;10.10;99.90;;;;;;4933821;29;20214;-63
2024/02/05 18:47:05;;;;;;;9.37;5.90;;;10.20;99.90;;;;;;4941452;29;20933;-63
2024/02/05 18:49:30;;;;;;;15.40;6.10;;;10.10;99.90;;;;;;4933727;29;20202;-63
2024/02/05 18:51:57;;;;;;;9.40;5.17;;;10.10;99.90;;;;;;4933221;29;20993;-63
2024/02/05 18:54:24;;;;;;;9.80;4.73;;;10.20;99.90;;;;;;4927797;29;20302;-65
2024/02/05 18:56:49;;;;;;;14.10;6.77;;;10.20;99.90;;;;;;4931764;29;20439;-63
2024/02/05 18:59:15;;;;;;;9.73;5.63;;;10.10;99.90;;;;;;4932584;29;20419;-63
2024/02/05 19:01:41;;;;;;;12.77;6.00;;;10.20;99.90;;;;;;4933243;29;20555;-64
2024/02/05 19:04:06;;;;;;;11.00;5.37;;;10.10;99.90;;;;;;4929742;29;20213;-63
2024/02/05 19:06:32;;;;;;;9.13;4.80;;;10.10;99.90;;;;;;4939024;29;20202;-63
2024/02/05 19:08:58;;;;;;;14.80;6.03;;;10.20;99.90;;;;;;4932981;29;20171;-64
2024/02/05 19:11:24;;;;;;;10.03;4.73;;;10.10;99.90;;;;;;4929058;29;20491;-63
2024/02/05 19:13:49;;;;;;;13.40;6.13;;;10.10;99.90;;;;;;4933479;29;20662;-62
2024/02/05 19:16:16;;;;;;;17.73;5.90;;;10.10;99.90;;;;;;4933385;29;20265;-63
2024/02/05 19:18:42;;;;;;;9.63;5.83;;;10.10;99.90;;;;;;4934565;29;20721;-63
2024/02/05 19:21:07;;;;;;;10.67;5.50;;;10.10;99.90;;;;;;4933993;29;20419;-63
2024/02/05 19:23:33;;;;;;;11.47;5.20;;;10.10;99.90;;;;;;4933950;29;20179;-63
2024/02/05 19:25:59;;;;;;;10.53;6.13;;;10.10;99.90;;;;;;4933164;29;20211;-64
2024/02/05 19:28:25;;;;;;;23.60;6.23;;;10.10;99.90;;;;;;4933551;29;20446;-63
2024/02/05 19:30:51;;;;;;;11.33;6.17;;;10.10;99.90;;;;;;4931118;29;20180;-64
2024/02/05 19:33:16;;;;;;;13.20;6.23;;;10.10;99.90;;;;;;4932979;29;20179;-63
2024/02/05 19:35:42;;;;;;;14.73;5.90;;;10.10;99.90;;;;;;4932916;29;20553;-64
2024/02/05 19:38:07;;;;;;;8.63;5.30;;;10.10;99.90;;;;;;4933536;29;20179;-64
2024/02/05 19:40:33;;;;;;;11.17;6.53;;;10.10;99.90;;;;;;4933262;29;20524;-62
2024/02/05 19:42:59;;;;;;;16.53;6.00;;;10.10;99.90;;;;;;4933182;29;20191;-64
2024/02/05 19:45:25;;;;;;;7.97;5.80;;;10.10;99.90;;;;;;4933142;29;20609;-64
2024/02/05 19:47:50;;;;;;;12.00;5.87;;;10.10;99.90;;;;;;4932796;29;20997;-63
2024/02/05 19:50:16;;;;;;;12.93;7.93;;;10.10;99.90;;;;;;4934261;29;20183;-64
2024/02/05 19:52:42;;;;;;;11.53;6.20;;;10.10;99.90;;;;;;4936300;29;20179;-64
2024/02/05 19:55:09;;;;;;;13.00;6.77;;;10.10;99.90;;;;;;4936672;29;20903;-64
2024/02/05 19:57:38;;;;;;;15.20;6.20;;;10.10;99.90;;;;;;4936596;29;20201;-64
2024/02/05 20:00:04;;;;;;;15.10;7.07;;;10.00;99.90;;;;;;4936457;29;20427;-64
2024/02/05 20:02:29;;;;;;;10.93;6.40;;;10.00;99.90;;;;;;4936333;29;20419;-64
2024/02/05 20:04:55;;;;;;;12.23;7.90;;;10.00;99.90;;;;;;4930276;29;21020;-62
2024/02/05 20:07:20;;;;;;;15.60;6.87;;;10.00;99.90;;;;;;4941118;29;20210;-64
2024/02/05 20:09:46;;;;;;;14.80;6.63;;;10.00;99.90;;;;;;4936335;29;20183;-64
2024/02/05 20:12:12;;;;;;;14.60;6.90;;;10.00;99.90;;;;;;4936340;29;20183;-63
2024/02/05 20:14:37;;;;;;;12.50;6.97;;;10.00;99.90;;;;;;4936211;29;20183;-64
2024/02/05 20:17:06;;;;;;;9.37;6.10;;;10.00;99.90;;;;;;4935669;29;20203;-63
2024/02/05 20:19:34;;;;;;;11.63;6.30;;;10.00;99.90;;;;;;4936194;29;20178;-63
2024/02/05 20:22:01;;;;;;;11.87;7.13;;;10.00;99.90;;;;;;4936413;29;20442;-63
2024/02/05 20:24:27;;;;;;;16.20;7.80;;;9.90;99.90;;;;;;4936603;29;20458;-63
2024/02/05 20:26:53;;;;;;;13.37;7.00;;;9.90;99.90;;;;;;4936122;29;20461;-64
2024/02/05 20:29:20;;;;;;;10.20;6.90;;;9.90;99.90;;;;;;4936453;29;20214;-62
2024/02/05 20:31:46;;;;;;;12.63;7.23;;;9.90;99.90;;;;;;4935625;29;20179;-64
2024/02/05 20:34:12;;;;;;;15.17;6.37;;;9.90;99.90;;;;;;4936216;29;20415;-63
2024/02/05 20:36:37;;;;;;;15.63;7.93;;;9.90;99.90;;;;;;4934181;29;20318;-64
2024/02/05 20:39:03;;;;;;;12.40;7.60;;;9.90;99.90;;;;;;4935663;29;20195;-64
2024/02/05 20:41:29;;;;;;;13.83;6.10;;;9.90;99.90;;;;;;4935689;29;20286;-65
2024/02/05 20:43:55;;;;;;;12.87;8.90;;;9.90;99.90;;;;;;4933007;29;20514;-65